sensor_id;sensor_type;location;lat;lon;timestamp;P1;durP1;ratioP1;P2;durP2;ratioP2
71734;SDS011;59577;52.122;5.406;2023-09-30T00:00:44;2.80;;;0.77;;
71734;SDS011;59577;52.122;5.406;2023-09-30T00:03:11;3.90;;;1.13;;
71734;SDS011;59577;52.122;5.406;2023-09-30T00:05:38;3.58;;;1.00;;
71734;SDS011;59577;52.122;5.406;2023-09-30T00:08:05;2.55;;;0.90;;
71734;SDS011;59577;52.122;5.406;2023-09-30T00:10:33;5.28;;;1.25;;
71734;SDS011;59577;52.122;5.406;2023-09-30T00:12:59;6.22;;;1.65;;
71734;SDS011;59577;52.122;5.406;2023-09-30T00:15:26;3.67;;;1.80;;
71734;SDS011;59577;52.122;5.406;2023-09-30T00:17:52;3.40;;;1.30;;
71734;SDS011;59577;52.122;5.406;2023-09-30T00:20:19;4.47;;;1.38;;
71734;SDS011;59577;52.122;5.406;2023-09-30T00:22:45;3.47;;;1.50;;
71734;SDS011;59577;52.122;5.406;2023-09-30T00:25:12;2.72;;;0.88;;
71734;SDS011;59577;52.122;5.406;2023-09-30T00:27:39;3.53;;;0.70;;
71734;SDS011;59577;52.122;5.406;2023-09-30T00:30:05;2.63;;;0.80;;
71734;SDS011;59577;52.122;5.406;2023-09-30T00:32:32;3.17;;;0.68;;
71734;SDS011;59577;52.122;5.406;2023-09-30T00:35:02;3.75;;;0.68;;
71734;SDS011;59577;52.122;5.406;2023-09-30T00:37:29;2.58;;;0.77;;
71734;SDS011;59577;52.122;5.406;2023-09-30T00:39:56;6.53;;;0.87;;
71734;SDS011;59577;52.122;5.406;2023-09-30T00:42:22;9.52;;;1.38;;
71734;SDS011;59577;52.122;5.406;2023-09-30T00:44:49;5.15;;;1.08;;
71734;SDS011;59577;52.122;5.406;2023-09-30T00:47:15;6.45;;;1.10;;
71734;SDS011;59577;52.122;5.406;2023-09-30T00:49:42;5.80;;;1.20;;
71734;SDS011;59577;52.122;5.406;2023-09-30T00:52:09;3.20;;;0.87;;
71734;SDS011;59577;52.122;5.406;2023-09-30T00:54:36;2.40;;;0.77;;
71734;SDS011;59577;52.122;5.406;2023-09-30T00:57:05;4.47;;;1.10;;
71734;SDS011;59577;52.122;5.406;2023-09-30T00:59:32;3.80;;;1.10;;
71734;SDS011;59577;52.122;5.406;2023-09-30T01:02:00;4.30;;;1.35;;
71734;SDS011;59577;52.122;5.406;2023-09-30T01:04:28;2.47;;;0.83;;
71734;SDS011;59577;52.122;5.406;2023-09-30T01:06:55;2.45;;;1.08;;
71734;SDS011;59577;52.122;5.406;2023-09-30T01:09:23;2.22;;;1.02;;
71734;SDS011;59577;52.122;5.406;2023-09-30T01:11:51;6.38;;;1.20;;
71734;SDS011;59577;52.122;5.406;2023-09-30T01:14:28;5.07;;;1.40;;
71734;SDS011;59577;52.122;5.406;2023-09-30T01:16:57;7.73;;;1.23;;
71734;SDS011;59577;52.122;5.406;2023-09-30T01:19:27;3.15;;;1.02;;
71734;SDS011;59577;52.122;5.406;2023-09-30T01:21:55;5.13;;;1.20;;
71734;SDS011;59577;52.122;5.406;2023-09-30T01:24:38;5.93;;;1.08;;
71734;SDS011;59577;52.122;5.406;2023-09-30T01:27:06;3.80;;;1.40;;
71734;SDS011;59577;52.122;5.406;2023-09-30T01:29:33;5.63;;;1.47;;
71734;SDS011;59577;52.122;5.406;2023-09-30T01:32:01;4.07;;;1.65;;
71734;SDS011;59577;52.122;5.406;2023-09-30T01:34:28;4.90;;;1.60;;
71734;SDS011;59577;52.122;5.406;2023-09-30T01:36:54;7.38;;;1.90;;
71734;SDS011;59577;52.122;5.406;2023-09-30T01:39:20;7.72;;;2.10;;
71734;SDS011;59577;52.122;5.406;2023-09-30T01:41:48;9.50;;;1.67;;
71734;SDS011;59577;52.122;5.406;2023-09-30T01:44:15;5.65;;;1.90;;
71734;SDS011;59577;52.122;5.406;2023-09-30T01:46:41;4.35;;;1.42;;
71734;SDS011;59577;52.122;5.406;2023-09-30T01:49:08;4.53;;;1.65;;
71734;SDS011;59577;52.122;5.406;2023-09-30T01:51:34;5.65;;;1.70;;
71734;SDS011;59577;52.122;5.406;2023-09-30T01:54:01;4.33;;;1.60;;
71734;SDS011;59577;52.122;5.406;2023-09-30T01:56:27;4.00;;;1.95;;
71734;SDS011;59577;52.122;5.406;2023-09-30T01:58:54;5.10;;;1.90;;
71734;SDS011;59577;52.122;5.406;2023-09-30T02:01:20;6.65;;;1.70;;
71734;SDS011;59577;52.122;5.406;2023-09-30T02:03:47;2.75;;;1.20;;
71734;SDS011;59577;52.122;5.406;2023-09-30T02:06:14;5.40;;;2.03;;
71734;SDS011;59577;52.122;5.406;2023-09-30T02:08:40;3.30;;;1.65;;
71734;SDS011;59577;52.122;5.406;2023-09-30T02:11:06;5.43;;;1.70;;
71734;SDS011;59577;52.122;5.406;2023-09-30T02:13:33;5.43;;;1.70;;
71734;SDS011;59577;52.122;5.406;2023-09-30T02:16:03;6.10;;;1.88;;
71734;SDS011;59577;52.122;5.406;2023-09-30T02:18:29;5.57;;;2.40;;
71734;SDS011;59577;52.122;5.406;2023-09-30T02:20:58;5.65;;;2.13;;
71734;SDS011;59577;52.122;5.406;2023-09-30T02:23:26;5.07;;;1.90;;
71734;SDS011;59577;52.122;5.406;2023-09-30T02:25:52;6.97;;;2.22;;
71734;SDS011;59577;52.122;5.406;2023-09-30T02:28:19;4.22;;;2.40;;
71734;SDS011;59577;52.122;5.406;2023-09-30T02:30:45;6.07;;;2.27;;
71734;SDS011;59577;52.122;5.406;2023-09-30T02:33:12;7.20;;;1.95;;
71734;SDS011;59577;52.122;5.406;2023-09-30T02:35:43;4.47;;;1.83;;
71734;SDS011;59577;52.122;5.406;2023-09-30T02:38:09;9.40;;;2.30;;
71734;SDS011;59577;52.122;5.406;2023-09-30T02:40:37;3.90;;;1.88;;
71734;SDS011;59577;52.122;5.406;2023-09-30T02:43:04;6.83;;;2.17;;
71734;SDS011;59577;52.122;5.406;2023-09-30T02:45:31;6.80;;;2.08;;
71734;SDS011;59577;52.122;5.406;2023-09-30T02:47:58;7.22;;;2.40;;
71734;SDS011;59577;52.122;5.406;2023-09-30T02:50:25;6.40;;;2.08;;
71734;SDS011;59577;52.122;5.406;2023-09-30T02:52:51;3.45;;;2.22;;
71734;SDS011;59577;52.122;5.406;2023-09-30T02:55:18;6.40;;;2.30;;
71734;SDS011;59577;52.122;5.406;2023-09-30T02:57:44;4.30;;;1.95;;
71734;SDS011;59577;52.122;5.406;2023-09-30T03:00:13;7.00;;;2.42;;
71734;SDS011;59577;52.122;5.406;2023-09-30T03:03:00;6.53;;;2.42;;
71734;SDS011;59577;52.122;5.406;2023-09-30T03:05:30;5.88;;;2.53;;
71734;SDS011;59577;52.122;5.406;2023-09-30T03:08:00;10.07;;;3.23;;
71734;SDS011;59577;52.122;5.406;2023-09-30T03:10:27;6.63;;;3.53;;
71734;SDS011;59577;52.122;5.406;2023-09-30T03:12:53;6.50;;;3.10;;
71734;SDS011;59577;52.122;5.406;2023-09-30T03:15:20;7.78;;;3.08;;
71734;SDS011;59577;52.122;5.406;2023-09-30T03:17:47;4.60;;;3.20;;
71734;SDS011;59577;52.122;5.406;2023-09-30T03:20:18;7.50;;;3.10;;
71734;SDS011;59577;52.122;5.406;2023-09-30T03:22:46;5.40;;;2.47;;
71734;SDS011;59577;52.122;5.406;2023-09-30T03:25:14;8.40;;;3.13;;
71734;SDS011;59577;52.122;5.406;2023-09-30T03:27:44;5.13;;;2.63;;
71734;SDS011;59577;52.122;5.406;2023-09-30T03:30:13;6.60;;;3.15;;
71734;SDS011;59577;52.122;5.406;2023-09-30T03:32:41;7.80;;;3.63;;
71734;SDS011;59577;52.122;5.406;2023-09-30T03:35:09;7.25;;;3.60;;
71734;SDS011;59577;52.122;5.406;2023-09-30T03:37:44;7.95;;;3.47;;
71734;SDS011;59577;52.122;5.406;2023-09-30T03:40:11;9.15;;;2.97;;
71734;SDS011;59577;52.122;5.406;2023-09-30T03:42:41;6.00;;;3.00;;
71734;SDS011;59577;52.122;5.406;2023-09-30T03:45:10;7.80;;;4.03;;
71734;SDS011;59577;52.122;5.406;2023-09-30T03:47:40;8.63;;;4.10;;
71734;SDS011;59577;52.122;5.406;2023-09-30T03:50:08;10.93;;;5.13;;
71734;SDS011;59577;52.122;5.406;2023-09-30T03:52:42;9.75;;;4.53;;
71734;SDS011;59577;52.122;5.406;2023-09-30T03:55:13;8.55;;;4.22;;
71734;SDS011;59577;52.122;5.406;2023-09-30T03:57:42;10.50;;;4.47;;
71734;SDS011;59577;52.122;5.406;2023-09-30T04:00:10;6.53;;;3.85;;
71734;SDS011;59577;52.122;5.406;2023-09-30T04:02:42;8.23;;;4.22;;
71734;SDS011;59577;52.122;5.406;2023-09-30T04:05:10;11.02;;;5.00;;
71734;SDS011;59577;52.122;5.406;2023-09-30T04:07:40;10.50;;;5.15;;
71734;SDS011;59577;52.122;5.406;2023-09-30T04:10:09;7.60;;;3.97;;
71734;SDS011;59577;52.122;5.406;2023-09-30T04:12:36;7.30;;;3.63;;
71734;SDS011;59577;52.122;5.406;2023-09-30T04:15:03;9.10;;;4.22;;
71734;SDS011;59577;52.122;5.406;2023-09-30T04:17:30;10.60;;;4.70;;
71734;SDS011;59577;52.122;5.406;2023-09-30T04:19:57;11.02;;;5.22;;
71734;SDS011;59577;52.122;5.406;2023-09-30T04:22:25;6.20;;;3.50;;
71734;SDS011;59577;52.122;5.406;2023-09-30T04:24:52;8.80;;;3.67;;
71734;SDS011;59577;52.122;5.406;2023-09-30T04:27:19;7.95;;;4.38;;
71734;SDS011;59577;52.122;5.406;2023-09-30T04:29:48;12.57;;;5.13;;
71734;SDS011;59577;52.122;5.406;2023-09-30T04:32:16;8.43;;;5.13;;
71734;SDS011;59577;52.122;5.406;2023-09-30T04:34:43;9.63;;;5.00;;
71734;SDS011;59577;52.122;5.406;2023-09-30T04:37:12;12.40;;;4.40;;
71734;SDS011;59577;52.122;5.406;2023-09-30T04:39:40;10.68;;;4.60;;
71734;SDS011;59577;52.122;5.406;2023-09-30T04:42:06;9.50;;;4.95;;
71734;SDS011;59577;52.122;5.406;2023-09-30T04:44:37;9.65;;;4.68;;
71734;SDS011;59577;52.122;5.406;2023-09-30T04:47:04;7.87;;;4.43;;
71734;SDS011;59577;52.122;5.406;2023-09-30T04:49:31;7.43;;;4.80;;
71734;SDS011;59577;52.122;5.406;2023-09-30T04:51:57;13.13;;;4.75;;
71734;SDS011;59577;52.122;5.406;2023-09-30T04:54:24;10.65;;;5.72;;
71734;SDS011;59577;52.122;5.406;2023-09-30T04:56:51;10.18;;;5.68;;
71734;SDS011;59577;52.122;5.406;2023-09-30T04:59:18;10.00;;;5.23;;
71734;SDS011;59577;52.122;5.406;2023-09-30T05:01:44;8.52;;;5.97;;
71734;SDS011;59577;52.122;5.406;2023-09-30T05:04:11;11.10;;;4.85;;
71734;SDS011;59577;52.122;5.406;2023-09-30T05:06:38;10.50;;;6.18;;
71734;SDS011;59577;52.122;5.406;2023-09-30T05:09:04;12.07;;;6.47;;
71734;SDS011;59577;52.122;5.406;2023-09-30T05:11:31;12.47;;;6.10;;
71734;SDS011;59577;52.122;5.406;2023-09-30T05:13:57;10.70;;;5.43;;
71734;SDS011;59577;52.122;5.406;2023-09-30T05:16:24;12.00;;;5.57;;
71734;SDS011;59577;52.122;5.406;2023-09-30T05:18:53;14.10;;;6.95;;
71734;SDS011;59577;52.122;5.406;2023-09-30T05:21:20;11.77;;;6.68;;
71734;SDS011;59577;52.122;5.406;2023-09-30T05:23:47;11.93;;;6.83;;
71734;SDS011;59577;52.122;5.406;2023-09-30T05:26:15;13.63;;;7.20;;
71734;SDS011;59577;52.122;5.406;2023-09-30T05:28:42;14.23;;;7.90;;
71734;SDS011;59577;52.122;5.406;2023-09-30T05:31:09;12.82;;;7.60;;
71734;SDS011;59577;52.122;5.406;2023-09-30T05:33:36;13.73;;;8.15;;
71734;SDS011;59577;52.122;5.406;2023-09-30T05:36:02;16.37;;;8.30;;
71734;SDS011;59577;52.122;5.406;2023-09-30T05:38:30;11.65;;;7.75;;
71734;SDS011;59577;52.122;5.406;2023-09-30T05:40:57;17.92;;;7.63;;
71734;SDS011;59577;52.122;5.406;2023-09-30T05:43:27;14.02;;;8.13;;
71734;SDS011;59577;52.122;5.406;2023-09-30T05:45:54;14.43;;;8.20;;
71734;SDS011;59577;52.122;5.406;2023-09-30T05:48:24;15.60;;;7.23;;
71734;SDS011;59577;52.122;5.406;2023-09-30T05:50:51;16.25;;;7.68;;
71734;SDS011;59577;52.122;5.406;2023-09-30T05:53:18;17.30;;;7.13;;
71734;SDS011;59577;52.122;5.406;2023-09-30T05:55:44;10.18;;;6.18;;
71734;SDS011;59577;52.122;5.406;2023-09-30T05:58:12;13.07;;;7.18;;
71734;SDS011;59577;52.122;5.406;2023-09-30T06:00:40;14.07;;;7.30;;
71734;SDS011;59577;52.122;5.406;2023-09-30T06:03:08;10.30;;;6.45;;
71734;SDS011;59577;52.122;5.406;2023-09-30T06:05:40;12.15;;;6.30;;
71734;SDS011;59577;52.122;5.406;2023-09-30T06:08:08;12.15;;;6.80;;
71734;SDS011;59577;52.122;5.406;2023-09-30T06:10:43;15.10;;;7.50;;
71734;SDS011;59577;52.122;5.406;2023-09-30T06:13:10;13.23;;;7.33;;
71734;SDS011;59577;52.122;5.406;2023-09-30T06:15:38;16.55;;;9.23;;
71734;SDS011;59577;52.122;5.406;2023-09-30T06:18:07;15.70;;;8.73;;
71734;SDS011;59577;52.122;5.406;2023-09-30T06:20:34;11.18;;;7.60;;
71734;SDS011;59577;52.122;5.406;2023-09-30T06:23:00;11.13;;;7.22;;
71734;SDS011;59577;52.122;5.406;2023-09-30T06:25:27;16.27;;;7.87;;
71734;SDS011;59577;52.122;5.406;2023-09-30T06:27:54;12.02;;;7.45;;
71734;SDS011;59577;52.122;5.406;2023-09-30T06:30:21;11.57;;;7.32;;
71734;SDS011;59577;52.122;5.406;2023-09-30T06:32:56;10.07;;;7.05;;
71734;SDS011;59577;52.122;5.406;2023-09-30T06:35:23;12.38;;;7.43;;
71734;SDS011;59577;52.122;5.406;2023-09-30T06:37:53;8.50;;;5.90;;
71734;SDS011;59577;52.122;5.406;2023-09-30T06:40:20;8.55;;;6.00;;
71734;SDS011;59577;52.122;5.406;2023-09-30T06:42:46;12.20;;;7.22;;
71734;SDS011;59577;52.122;5.406;2023-09-30T06:45:13;9.30;;;6.63;;
71734;SDS011;59577;52.122;5.406;2023-09-30T06:47:40;14.02;;;8.35;;
71734;SDS011;59577;52.122;5.406;2023-09-30T06:50:09;17.23;;;9.53;;
71734;SDS011;59577;52.122;5.406;2023-09-30T06:52:43;11.73;;;8.18;;
71734;SDS011;59577;52.122;5.406;2023-09-30T06:55:16;15.52;;;8.73;;
71734;SDS011;59577;52.122;5.406;2023-09-30T06:57:43;18.17;;;8.75;;
71734;SDS011;59577;52.122;5.406;2023-09-30T07:00:11;12.07;;;8.10;;
71734;SDS011;59577;52.122;5.406;2023-09-30T07:02:39;13.80;;;8.83;;
71734;SDS011;59577;52.122;5.406;2023-09-30T07:05:11;14.27;;;8.40;;
71734;SDS011;59577;52.122;5.406;2023-09-30T07:07:39;13.75;;;8.93;;
71734;SDS011;59577;52.122;5.406;2023-09-30T07:10:07;12.68;;;7.70;;
71734;SDS011;59577;52.122;5.406;2023-09-30T07:12:34;13.23;;;8.57;;
71734;SDS011;59577;52.122;5.406;2023-09-30T07:15:03;12.43;;;8.43;;
71734;SDS011;59577;52.122;5.406;2023-09-30T07:17:33;13.88;;;8.32;;
71734;SDS011;59577;52.122;5.406;2023-09-30T07:20:01;14.93;;;8.45;;
71734;SDS011;59577;52.122;5.406;2023-09-30T07:22:28;13.40;;;8.05;;
71734;SDS011;59577;52.122;5.406;2023-09-30T07:25:11;15.45;;;7.95;;
71734;SDS011;59577;52.122;5.406;2023-09-30T07:27:40;15.33;;;7.70;;
71734;SDS011;59577;52.122;5.406;2023-09-30T07:30:07;14.50;;;8.07;;
71734;SDS011;59577;52.122;5.406;2023-09-30T07:32:33;11.02;;;7.10;;
71734;SDS011;59577;52.122;5.406;2023-09-30T07:35:00;12.27;;;7.70;;
71734;SDS011;59577;52.122;5.406;2023-09-30T07:37:27;14.52;;;8.23;;
71734;SDS011;59577;52.122;5.406;2023-09-30T07:39:54;13.77;;;7.40;;
71734;SDS011;59577;52.122;5.406;2023-09-30T07:42:21;11.02;;;7.22;;
71734;SDS011;59577;52.122;5.406;2023-09-30T07:44:48;11.88;;;7.50;;
71734;SDS011;59577;52.122;5.406;2023-09-30T07:47:15;12.38;;;6.78;;
71734;SDS011;59577;52.122;5.406;2023-09-30T07:49:42;12.30;;;7.25;;
71734;SDS011;59577;52.122;5.406;2023-09-30T07:52:09;15.90;;;7.37;;
71734;SDS011;59577;52.122;5.406;2023-09-30T07:54:37;10.88;;;6.65;;
71734;SDS011;59577;52.122;5.406;2023-09-30T07:57:03;9.70;;;6.47;;
71734;SDS011;59577;52.122;5.406;2023-09-30T07:59:30;10.45;;;6.57;;
71734;SDS011;59577;52.122;5.406;2023-09-30T08:02:00;13.55;;;6.55;;
71734;SDS011;59577;52.122;5.406;2023-09-30T08:04:28;9.47;;;6.63;;
71734;SDS011;59577;52.122;5.406;2023-09-30T08:06:56;10.98;;;6.38;;
71734;SDS011;59577;52.122;5.406;2023-09-30T08:09:23;12.18;;;6.05;;
71734;SDS011;59577;52.122;5.406;2023-09-30T08:11:52;11.70;;;6.20;;
71734;SDS011;59577;52.122;5.406;2023-09-30T08:14:20;9.68;;;6.93;;
71734;SDS011;59577;52.122;5.406;2023-09-30T08:16:46;14.10;;;7.27;;
71734;SDS011;59577;52.122;5.406;2023-09-30T08:19:13;11.25;;;6.95;;
71734;SDS011;59577;52.122;5.406;2023-09-30T08:21:39;12.13;;;7.00;;
71734;SDS011;59577;52.122;5.406;2023-09-30T08:24:06;9.90;;;5.90;;
71734;SDS011;59577;52.122;5.406;2023-09-30T08:26:34;8.73;;;6.35;;
71734;SDS011;59577;52.122;5.406;2023-09-30T08:29:02;12.30;;;6.50;;
71734;SDS011;59577;52.122;5.406;2023-09-30T08:31:28;9.50;;;5.97;;
71734;SDS011;59577;52.122;5.406;2023-09-30T08:33:56;11.18;;;6.47;;
71734;SDS011;59577;52.122;5.406;2023-09-30T08:36:23;7.07;;;6.10;;
71734;SDS011;59577;52.122;5.406;2023-09-30T08:38:51;10.85;;;6.20;;
71734;SDS011;59577;52.122;5.406;2023-09-30T08:41:24;10.30;;;6.37;;
71734;SDS011;59577;52.122;5.406;2023-09-30T08:44:02;9.00;;;5.60;;
71734;SDS011;59577;52.122;5.406;2023-09-30T08:46:30;7.20;;;5.97;;
71734;SDS011;59577;52.122;5.406;2023-09-30T08:49:02;8.13;;;5.35;;
71734;SDS011;59577;52.122;5.406;2023-09-30T08:51:30;10.23;;;5.13;;
71734;SDS011;59577;52.122;5.406;2023-09-30T08:53:58;7.57;;;5.27;;
71734;SDS011;59577;52.122;5.406;2023-09-30T08:56:29;8.02;;;5.40;;
71734;SDS011;59577;52.122;5.406;2023-09-30T08:58:57;7.10;;;5.60;;
71734;SDS011;59577;52.122;5.406;2023-09-30T09:01:29;9.02;;;5.13;;
71734;SDS011;59577;52.122;5.406;2023-09-30T09:03:57;12.13;;;6.28;;
71734;SDS011;59577;52.122;5.406;2023-09-30T09:06:25;7.30;;;5.70;;
71734;SDS011;59577;52.122;5.406;2023-09-30T09:08:52;10.80;;;5.40;;
71734;SDS011;59577;52.122;5.406;2023-09-30T09:11:19;9.60;;;5.65;;
71734;SDS011;59577;52.122;5.406;2023-09-30T09:16:19;8.35;;;5.05;;
71734;SDS011;59577;52.122;5.406;2023-09-30T09:18:46;9.57;;;5.30;;
71734;SDS011;59577;52.122;5.406;2023-09-30T09:21:15;8.35;;;5.22;;
71734;SDS011;59577;52.122;5.406;2023-09-30T09:23:47;9.93;;;4.72;;
71734;SDS011;59577;52.122;5.406;2023-09-30T09:26:24;8.27;;;5.00;;
71734;SDS011;59577;52.122;5.406;2023-09-30T09:28:56;10.98;;;5.88;;
71734;SDS011;59577;52.122;5.406;2023-09-30T09:31:32;7.20;;;5.23;;
71734;SDS011;59577;52.122;5.406;2023-09-30T09:34:03;12.70;;;4.60;;
71734;SDS011;59577;52.122;5.406;2023-09-30T09:36:40;8.30;;;4.65;;
71734;SDS011;59577;52.122;5.406;2023-09-30T09:39:07;8.55;;;5.25;;
71734;SDS011;59577;52.122;5.406;2023-09-30T09:41:50;8.32;;;4.32;;
71734;SDS011;59577;52.122;5.406;2023-09-30T09:44:21;5.97;;;3.73;;
71734;SDS011;59577;52.122;5.406;2023-09-30T09:46:48;7.88;;;3.60;;
71734;SDS011;59577;52.122;5.406;2023-09-30T09:49:17;6.95;;;3.45;;
71734;SDS011;59577;52.122;5.406;2023-09-30T09:51:45;7.22;;;3.38;;
71734;SDS011;59577;52.122;5.406;2023-09-30T09:54:12;9.80;;;4.20;;
71734;SDS011;59577;52.122;5.406;2023-09-30T09:56:41;8.63;;;3.33;;
71734;SDS011;59577;52.122;5.406;2023-09-30T09:59:11;7.80;;;3.28;;
71734;SDS011;59577;52.122;5.406;2023-09-30T10:01:39;5.50;;;2.60;;
71734;SDS011;59577;52.122;5.406;2023-09-30T10:04:06;6.70;;;2.53;;
71734;SDS011;59577;52.122;5.406;2023-09-30T10:06:34;7.55;;;2.70;;
71734;SDS011;59577;52.122;5.406;2023-09-30T10:09:06;10.27;;;3.07;;
71734;SDS011;59577;52.122;5.406;2023-09-30T10:11:37;8.05;;;2.63;;
71734;SDS011;59577;52.122;5.406;2023-09-30T10:14:06;5.45;;;2.78;;
71734;SDS011;59577;52.122;5.406;2023-09-30T10:19:06;7.32;;;2.42;;
71734;SDS011;59577;52.122;5.406;2023-09-30T10:21:38;5.47;;;1.93;;
71734;SDS011;59577;52.122;5.406;2023-09-30T10:29:48;9.40;;;2.20;;
71734;SDS011;59577;52.122;5.406;2023-09-30T10:32:20;6.15;;;2.05;;
71734;SDS011;59577;52.122;5.406;2023-09-30T10:34:47;7.83;;;1.77;;
71734;SDS011;59577;52.122;5.406;2023-09-30T10:37:21;8.00;;;2.03;;
71734;SDS011;59577;52.122;5.406;2023-09-30T10:39:53;6.15;;;2.00;;
71734;SDS011;59577;52.122;5.406;2023-09-30T10:50:54;5.57;;;1.75;;
71734;SDS011;59577;52.122;5.406;2023-09-30T10:53:22;8.52;;;1.88;;
71734;SDS011;59577;52.122;5.406;2023-09-30T10:55:59;6.00;;;1.90;;
71734;SDS011;59577;52.122;5.406;2023-09-30T11:01:08;5.87;;;2.00;;
71734;SDS011;59577;52.122;5.406;2023-09-30T11:03:36;6.47;;;2.15;;
71734;SDS011;59577;52.122;5.406;2023-09-30T11:06:03;10.07;;;2.13;;
71734;SDS011;59577;52.122;5.406;2023-09-30T11:08:38;7.20;;;1.45;;
71734;SDS011;59577;52.122;5.406;2023-09-30T11:11:10;5.50;;;1.40;;
71734;SDS011;59577;52.122;5.406;2023-09-30T11:13:37;7.67;;;1.53;;
71734;SDS011;59577;52.122;5.406;2023-09-30T11:16:05;4.18;;;1.15;;
71734;SDS011;59577;52.122;5.406;2023-09-30T11:18:32;3.95;;;1.38;;
71734;SDS011;59577;52.122;5.406;2023-09-30T11:21:09;5.40;;;1.70;;
71734;SDS011;59577;52.122;5.406;2023-09-30T11:23:40;4.60;;;1.60;;
71734;SDS011;59577;52.122;5.406;2023-09-30T11:26:07;7.43;;;2.20;;
71734;SDS011;59577;52.122;5.406;2023-09-30T11:28:40;7.32;;;1.27;;
71734;SDS011;59577;52.122;5.406;2023-09-30T11:31:12;4.57;;;1.23;;
71734;SDS011;59577;52.122;5.406;2023-09-30T11:33:51;5.88;;;1.50;;
71734;SDS011;59577;52.122;5.406;2023-09-30T11:36:20;4.38;;;1.10;;
71734;SDS011;59577;52.122;5.406;2023-09-30T11:38:48;4.27;;;1.27;;
71734;SDS011;59577;52.122;5.406;2023-09-30T11:41:17;4.88;;;1.20;;
71734;SDS011;59577;52.122;5.406;2023-09-30T11:44:02;10.80;;;2.15;;
71734;SDS011;59577;52.122;5.406;2023-09-30T11:46:57;4.80;;;1.73;;
71734;SDS011;59577;52.122;5.406;2023-09-30T11:49:28;6.65;;;2.35;;
71734;SDS011;59577;52.122;5.406;2023-09-30T11:52:07;5.27;;;2.10;;
71734;SDS011;59577;52.122;5.406;2023-09-30T11:57:11;5.55;;;1.50;;
71734;SDS011;59577;52.122;5.406;2023-09-30T11:59:42;6.93;;;1.30;;
71734;SDS011;59577;52.122;5.406;2023-09-30T12:02:14;5.13;;;1.60;;
71734;SDS011;59577;52.122;5.406;2023-09-30T12:04:44;4.50;;;1.67;;
71734;SDS011;59577;52.122;5.406;2023-09-30T12:07:12;6.00;;;1.45;;
71734;SDS011;59577;52.122;5.406;2023-09-30T12:09:39;5.40;;;1.30;;
71734;SDS011;59577;52.122;5.406;2023-09-30T12:12:07;4.30;;;1.60;;
71734;SDS011;59577;52.122;5.406;2023-09-30T12:14:41;5.55;;;1.48;;
71734;SDS011;59577;52.122;5.406;2023-09-30T12:17:07;5.10;;;1.43;;
71734;SDS011;59577;52.122;5.406;2023-09-30T12:19:39;4.82;;;1.58;;
71734;SDS011;59577;52.122;5.406;2023-09-30T12:22:08;5.93;;;1.40;;
71734;SDS011;59577;52.122;5.406;2023-09-30T12:24:36;5.00;;;1.00;;
71734;SDS011;59577;52.122;5.406;2023-09-30T12:27:03;5.40;;;1.52;;
71734;SDS011;59577;52.122;5.406;2023-09-30T12:29:31;3.97;;;0.90;;
71734;SDS011;59577;52.122;5.406;2023-09-30T12:31:58;3.40;;;1.05;;
71734;SDS011;59577;52.122;5.406;2023-09-30T12:34:25;5.28;;;1.30;;
71734;SDS011;59577;52.122;5.406;2023-09-30T12:36:54;4.45;;;1.30;;
71734;SDS011;59577;52.122;5.406;2023-09-30T12:39:22;7.55;;;1.60;;
71734;SDS011;59577;52.122;5.406;2023-09-30T12:41:52;5.37;;;1.23;;
71734;SDS011;59577;52.122;5.406;2023-09-30T12:44:19;6.63;;;1.17;;
71734;SDS011;59577;52.122;5.406;2023-09-30T12:46:45;5.20;;;1.35;;
71734;SDS011;59577;52.122;5.406;2023-09-30T12:49:12;5.28;;;1.25;;
71734;SDS011;59577;52.122;5.406;2023-09-30T12:51:39;6.30;;;1.40;;
71734;SDS011;59577;52.122;5.406;2023-09-30T12:54:05;5.13;;;1.17;;
71734;SDS011;59577;52.122;5.406;2023-09-30T12:56:32;6.13;;;1.63;;
71734;SDS011;59577;52.122;5.406;2023-09-30T12:58:59;7.35;;;1.40;;
71734;SDS011;59577;52.122;5.406;2023-09-30T13:01:26;4.93;;;1.67;;
71734;SDS011;59577;52.122;5.406;2023-09-30T13:03:55;5.97;;;1.77;;
71734;SDS011;59577;52.122;5.406;2023-09-30T13:06:22;8.20;;;1.33;;
71734;SDS011;59577;52.122;5.406;2023-09-30T13:08:49;5.22;;;1.27;;
71734;SDS011;59577;52.122;5.406;2023-09-30T13:11:15;3.60;;;1.00;;
71734;SDS011;59577;52.122;5.406;2023-09-30T13:13:42;6.43;;;1.67;;
71734;SDS011;59577;52.122;5.406;2023-09-30T13:16:10;5.95;;;1.80;;
71734;SDS011;59577;52.122;5.406;2023-09-30T13:18:38;4.73;;;1.33;;
71734;SDS011;59577;52.122;5.406;2023-09-30T13:21:05;3.13;;;1.00;;
71734;SDS011;59577;52.122;5.406;2023-09-30T13:23:33;6.70;;;1.70;;
71734;SDS011;59577;52.122;5.406;2023-09-30T13:26:00;8.98;;;1.27;;
71734;SDS011;59577;52.122;5.406;2023-09-30T13:28:27;6.22;;;1.50;;
71734;SDS011;59577;52.122;5.406;2023-09-30T13:30:54;8.03;;;1.60;;
71734;SDS011;59577;52.122;5.406;2023-09-30T13:33:21;5.25;;;1.60;;
71734;SDS011;59577;52.122;5.406;2023-09-30T13:35:48;5.88;;;1.40;;
71734;SDS011;59577;52.122;5.406;2023-09-30T13:38:14;8.05;;;1.27;;
71734;SDS011;59577;52.122;5.406;2023-09-30T13:40:42;5.95;;;1.50;;
71734;SDS011;59577;52.122;5.406;2023-09-30T13:43:09;4.63;;;1.40;;
71734;SDS011;59577;52.122;5.406;2023-09-30T13:45:37;7.60;;;1.70;;
71734;SDS011;59577;52.122;5.406;2023-09-30T13:48:04;3.83;;;1.50;;
71734;SDS011;59577;52.122;5.406;2023-09-30T13:50:31;6.85;;;1.83;;
71734;SDS011;59577;52.122;5.406;2023-09-30T13:52:58;7.45;;;1.42;;
71734;SDS011;59577;52.122;5.406;2023-09-30T13:55:27;5.00;;;1.67;;
71734;SDS011;59577;52.122;5.406;2023-09-30T13:57:53;6.03;;;1.73;;
71734;SDS011;59577;52.122;5.406;2023-09-30T14:00:20;10.30;;;1.98;;
71734;SDS011;59577;52.122;5.406;2023-09-30T14:02:48;6.28;;;1.60;;
71734;SDS011;59577;52.122;5.406;2023-09-30T14:05:15;6.10;;;1.50;;
71734;SDS011;59577;52.122;5.406;2023-09-30T14:07:43;4.10;;;1.43;;
71734;SDS011;59577;52.122;5.406;2023-09-30T14:10:09;5.35;;;1.80;;
71734;SDS011;59577;52.122;5.406;2023-09-30T14:12:37;7.03;;;1.85;;
71734;SDS011;59577;52.122;5.406;2023-09-30T14:15:05;7.28;;;2.00;;
71734;SDS011;59577;52.122;5.406;2023-09-30T14:17:33;6.55;;;1.75;;
71734;SDS011;59577;52.122;5.406;2023-09-30T14:20:01;7.33;;;1.80;;
71734;SDS011;59577;52.122;5.406;2023-09-30T14:22:31;8.38;;;2.05;;
71734;SDS011;59577;52.122;5.406;2023-09-30T14:24:58;7.20;;;2.08;;
71734;SDS011;59577;52.122;5.406;2023-09-30T14:27:25;5.63;;;1.85;;
71734;SDS011;59577;52.122;5.406;2023-09-30T14:29:52;7.07;;;1.90;;
71734;SDS011;59577;52.122;5.406;2023-09-30T14:32:19;6.93;;;1.90;;
71734;SDS011;59577;52.122;5.406;2023-09-30T14:34:46;6.90;;;1.70;;
71734;SDS011;59577;52.122;5.406;2023-09-30T14:37:13;7.47;;;1.60;;
71734;SDS011;59577;52.122;5.406;2023-09-30T14:39:40;6.85;;;1.70;;
71734;SDS011;59577;52.122;5.406;2023-09-30T14:42:06;6.57;;;1.70;;
71734;SDS011;59577;52.122;5.406;2023-09-30T14:44:33;5.50;;;1.50;;
71734;SDS011;59577;52.122;5.406;2023-09-30T14:47:00;7.82;;;1.80;;
71734;SDS011;59577;52.122;5.406;2023-09-30T14:49:26;5.72;;;1.73;;
71734;SDS011;59577;52.122;5.406;2023-09-30T14:51:53;8.60;;;1.70;;
71734;SDS011;59577;52.122;5.406;2023-09-30T14:54:20;5.35;;;1.42;;
71734;SDS011;59577;52.122;5.406;2023-09-30T14:56:46;6.37;;;1.60;;
71734;SDS011;59577;52.122;5.406;2023-09-30T14:59:13;6.30;;;1.50;;
71734;SDS011;59577;52.122;5.406;2023-09-30T15:01:40;9.60;;;1.88;;
71734;SDS011;59577;52.122;5.406;2023-09-30T15:04:07;5.50;;;1.60;;
71734;SDS011;59577;52.122;5.406;2023-09-30T15:06:36;5.05;;;1.42;;
71734;SDS011;59577;52.122;5.406;2023-09-30T15:09:03;11.10;;;1.63;;
71734;SDS011;59577;52.122;5.406;2023-09-30T15:11:30;6.60;;;1.30;;
71734;SDS011;59577;52.122;5.406;2023-09-30T15:13:57;4.90;;;1.35;;